createdAt,value
2023-02-14T00:00:01.500Z,9.99
2023-02-14T00:15:02.221Z,9.74
2023-02-14T00:30:01.971Z,9.73
2023-02-14T00:45:01.697Z,9.69
2023-02-14T01:00:02.353Z,9.46
2023-02-14T01:15:02.011Z,9.32
2023-02-14T01:30:01.738Z,9.16
2023-02-14T01:45:01.449Z,9.4
2023-02-14T02:00:02.113Z,9.64
2023-02-14T02:15:01.781Z,9.33
2023-02-14T02:30:01.498Z,9.26
2023-02-14T02:45:02.165Z,8.95
2023-02-14T03:00:01.915Z,8.77
2023-02-14T03:15:01.625Z,8.88
2023-02-14T03:30:01.341Z,9.01
2023-02-14T03:45:02.053Z,8.45
2023-02-14T04:00:01.841Z,8.2
2023-02-14T04:15:01.763Z,8.13
2023-02-14T04:30:02.473Z,8.19
2023-02-14T04:45:04.180Z,8.17
2023-02-14T05:00:01.996Z,8.03
2023-02-14T05:15:01.669Z,7.78
2023-02-14T05:30:02.440Z,7.36
2023-02-14T05:45:02.169Z,7.08
2023-02-14T06:00:01.972Z,6.97
2023-02-14T06:15:01.846Z,6.77
2023-02-14T06:30:01.658Z,7.06
2023-02-14T06:45:02.344Z,6.58
2023-02-14T07:00:01.958Z,6.58
2023-02-14T07:15:01.616Z,6.74
2023-02-14T07:30:02.351Z,6.95
2023-02-14T07:45:12.524Z,7.34
2023-02-14T08:00:02.183Z,7.8
2023-02-14T08:15:01.815Z,8.29
2023-02-14T08:30:01.549Z,8.66
2023-02-14T08:45:02.223Z,9.92
2023-02-14T09:00:01.820Z,18.97
2023-02-14T09:15:01.434Z,24.26
2023-02-14T09:30:02.347Z,26.25
2023-02-14T09:45:02.077Z,28.77
2023-02-14T10:00:01.688Z,31.55
2023-02-14T10:15:01.324Z,32.68
2023-02-14T10:30:01.949Z,33.14
2023-02-14T10:45:01.667Z,34.64
2023-02-14T11:00:01.289Z,36.47
2023-02-14T11:15:01.920Z,37.42
2023-02-14T11:30:01.594Z,38.68
2023-02-14T11:45:01.265Z,35.82
2023-02-14T12:00:02.001Z,34.02
2023-02-14T12:15:01.857Z,37.71
2023-02-14T12:30:01.615Z,38.08
2023-02-14T12:45:02.280Z,35.83
2023-02-14T13:00:01.890Z,35.93
2023-02-14T13:15:01.511Z,37.19
2023-02-14T13:30:02.279Z,35.01
2023-02-14T13:45:02.006Z,34.75
2023-02-14T14:00:01.658Z,34
2023-02-14T14:15:02.300Z,32.74
2023-02-14T14:30:01.993Z,33.19
2023-02-14T14:45:01.617Z,34.24
2023-02-14T15:00:02.248Z,32.46
2023-02-14T15:15:01.905Z,32.26
2023-02-14T15:30:01.642Z,31.15
2023-02-14T15:45:02.313Z,29.12
2023-02-14T16:00:01.940Z,26.29
2023-02-14T16:15:01.556Z,24.43
2023-02-14T16:30:02.267Z,21.97
2023-02-14T16:45:01.924Z,19.29
2023-02-14T17:00:01.553Z,17.57
2023-02-14T17:15:02.184Z,16.63
2023-02-14T17:30:02.014Z,16.04
2023-02-14T17:45:01.729Z,15.76
2023-02-14T18:00:01.534Z,15.5
2023-02-14T18:15:02.211Z,14.94
2023-02-14T18:30:02.030Z,14.38
2023-02-14T18:45:01.751Z,13.83
2023-02-14T19:00:01.411Z,13.64
2023-02-14T19:15:02.110Z,13.44
2023-02-14T19:30:01.843Z,13.18
2023-02-14T19:45:01.546Z,12.6
2023-02-14T20:00:02.320Z,12.25
2023-02-14T20:15:02.204Z,12.11
2023-02-14T20:30:01.959Z,11.92
2023-02-14T20:45:01.708Z,11.67
2023-02-14T21:00:02.378Z,11.35
2023-02-14T21:15:02.042Z,11.07
2023-02-14T21:30:01.801Z,10.68
2023-02-14T21:45:02.515Z,10.51
2023-02-14T22:00:02.243Z,10.55
2023-02-14T22:15:01.945Z,10.12
2023-02-14T22:30:01.724Z,9.89
2023-02-14T22:45:02.388Z,9.55
2023-02-14T23:00:02.160Z,9.36
2023-02-14T23:15:01.939Z,9.35
2023-02-14T23:30:01.734Z,9.4
2023-02-14T23:45:01.462Z,9.46
